sensor_id;sensor_type;location;lat;lon;timestamp;P1;durP1;ratioP1;P2;durP2;ratioP2
20080;SDS011;10200;49.232;9.222;2023-06-26T00:02:09;4.82;;;3.97;;
20080;SDS011;10200;49.232;9.222;2023-06-26T00:04:35;4.70;;;4.20;;
20080;SDS011;10200;49.232;9.222;2023-06-26T00:07:02;4.97;;;4.07;;
20080;SDS011;10200;49.232;9.222;2023-06-26T00:09:29;6.13;;;3.92;;
20080;SDS011;10200;49.232;9.222;2023-06-26T00:11:54;6.45;;;4.13;;
20080;SDS011;10200;49.232;9.222;2023-06-26T00:14:20;5.10;;;4.10;;
20080;SDS011;10200;49.232;9.222;2023-06-26T00:16:46;4.32;;;3.90;;
20080;SDS011;10200;49.232;9.222;2023-06-26T00:19:14;4.35;;;3.95;;
20080;SDS011;10200;49.232;9.222;2023-06-26T00:21:40;5.88;;;4.28;;
20080;SDS011;10200;49.232;9.222;2023-06-26T00:24:06;4.13;;;3.60;;
20080;SDS011;10200;49.232;9.222;2023-06-26T00:26:31;6.43;;;4.18;;
20080;SDS011;10200;49.232;9.222;2023-06-26T00:28:57;4.75;;;4.15;;
20080;SDS011;10200;49.232;9.222;2023-06-26T00:31:23;5.00;;;3.83;;
20080;SDS011;10200;49.232;9.222;2023-06-26T00:33:48;5.70;;;4.10;;
20080;SDS011;10200;49.232;9.222;2023-06-26T00:36:14;5.18;;;4.40;;
20080;SDS011;10200;49.232;9.222;2023-06-26T00:38:39;5.07;;;4.20;;
20080;SDS011;10200;49.232;9.222;2023-06-26T00:41:05;9.15;;;4.05;;
20080;SDS011;10200;49.232;9.222;2023-06-26T00:43:37;5.82;;;4.35;;
20080;SDS011;10200;49.232;9.222;2023-06-26T00:46:03;4.60;;;4.07;;
20080;SDS011;10200;49.232;9.222;2023-06-26T00:48:28;6.68;;;4.30;;
20080;SDS011;10200;49.232;9.222;2023-06-26T00:50:54;5.18;;;4.50;;
20080;SDS011;10200;49.232;9.222;2023-06-26T00:53:20;5.97;;;4.53;;
20080;SDS011;10200;49.232;9.222;2023-06-26T00:55:47;4.95;;;4.40;;
20080;SDS011;10200;49.232;9.222;2023-06-26T00:58:12;6.45;;;3.80;;
20080;SDS011;10200;49.232;9.222;2023-06-26T01:00:38;4.10;;;3.67;;
20080;SDS011;10200;49.232;9.222;2023-06-26T01:03:04;6.35;;;4.60;;
20080;SDS011;10200;49.232;9.222;2023-06-26T01:05:30;3.85;;;3.40;;
20080;SDS011;10200;49.232;9.222;2023-06-26T01:07:56;5.03;;;4.47;;
20080;SDS011;10200;49.232;9.222;2023-06-26T01:10:23;5.65;;;4.97;;
20080;SDS011;10200;49.232;9.222;2023-06-26T01:12:49;7.75;;;4.80;;
20080;SDS011;10200;49.232;9.222;2023-06-26T01:15:15;4.45;;;4.05;;
20080;SDS011;10200;49.232;9.222;2023-06-26T01:17:40;5.30;;;4.47;;
20080;SDS011;10200;49.232;9.222;2023-06-26T01:20:10;4.88;;;4.38;;
20080;SDS011;10200;49.232;9.222;2023-06-26T01:22:38;4.85;;;4.28;;
20080;SDS011;10200;49.232;9.222;2023-06-26T01:28:03;8.52;;;4.88;;
20080;SDS011;10200;49.232;9.222;2023-06-26T01:30:31;5.97;;;4.72;;
20080;SDS011;10200;49.232;9.222;2023-06-26T01:32:58;8.60;;;5.07;;
20080;SDS011;10200;49.232;9.222;2023-06-26T01:35:25;6.35;;;4.32;;
20080;SDS011;10200;49.232;9.222;2023-06-26T01:37:51;7.10;;;4.70;;
20080;SDS011;10200;49.232;9.222;2023-06-26T01:40:17;7.05;;;5.50;;
20080;SDS011;10200;49.232;9.222;2023-06-26T01:42:43;5.13;;;4.63;;
20080;SDS011;10200;49.232;9.222;2023-06-26T01:45:20;5.03;;;4.53;;
20080;SDS011;10200;49.232;9.222;2023-06-26T01:47:51;5.18;;;4.50;;
20080;SDS011;10200;49.232;9.222;2023-06-26T01:50:28;8.10;;;4.43;;
20080;SDS011;10200;49.232;9.222;2023-06-26T01:53:17;5.95;;;4.40;;
20080;SDS011;10200;49.232;9.222;2023-06-26T01:55:59;5.60;;;4.82;;
20080;SDS011;10200;49.232;9.222;2023-06-26T01:58:28;7.13;;;4.43;;
20080;SDS011;10200;49.232;9.222;2023-06-26T02:00:55;8.73;;;5.88;;
20080;SDS011;10200;49.232;9.222;2023-06-26T02:03:20;5.78;;;4.60;;
20080;SDS011;10200;49.232;9.222;2023-06-26T02:05:49;5.82;;;4.95;;
20080;SDS011;10200;49.232;9.222;2023-06-26T02:08:15;5.10;;;4.57;;
20080;SDS011;10200;49.232;9.222;2023-06-26T02:10:41;7.03;;;5.22;;
20080;SDS011;10200;49.232;9.222;2023-06-26T02:13:06;6.82;;;3.85;;
20080;SDS011;10200;49.232;9.222;2023-06-26T02:15:32;6.25;;;4.40;;
20080;SDS011;10200;49.232;9.222;2023-06-26T02:17:57;5.18;;;4.68;;
20080;SDS011;10200;49.232;9.222;2023-06-26T02:20:23;4.85;;;4.35;;
20080;SDS011;10200;49.232;9.222;2023-06-26T02:22:48;5.25;;;4.57;;
20080;SDS011;10200;49.232;9.222;2023-06-26T02:25:14;10.02;;;4.35;;
20080;SDS011;10200;49.232;9.222;2023-06-26T02:27:40;7.32;;;4.55;;
20080;SDS011;10200;49.232;9.222;2023-06-26T02:30:07;9.60;;;4.90;;
20080;SDS011;10200;49.232;9.222;2023-06-26T02:32:33;5.30;;;4.38;;
20080;SDS011;10200;49.232;9.222;2023-06-26T02:34:59;5.38;;;4.78;;
20080;SDS011;10200;49.232;9.222;2023-06-26T02:37:25;5.05;;;4.47;;
20080;SDS011;10200;49.232;9.222;2023-06-26T02:39:50;4.95;;;4.05;;
20080;SDS011;10200;49.232;9.222;2023-06-26T02:42:16;5.53;;;4.32;;
20080;SDS011;10200;49.232;9.222;2023-06-26T02:44:42;7.00;;;5.00;;
20080;SDS011;10200;49.232;9.222;2023-06-26T02:47:07;6.43;;;4.30;;
20080;SDS011;10200;49.232;9.222;2023-06-26T02:49:33;5.63;;;5.00;;
20080;SDS011;10200;49.232;9.222;2023-06-26T02:51:58;5.05;;;4.40;;
20080;SDS011;10200;49.232;9.222;2023-06-26T02:54:24;5.72;;;4.88;;
20080;SDS011;10200;49.232;9.222;2023-06-26T02:56:49;6.32;;;4.60;;
20080;SDS011;10200;49.232;9.222;2023-06-26T02:59:15;5.78;;;4.57;;
20080;SDS011;10200;49.232;9.222;2023-06-26T03:01:41;7.65;;;4.30;;
20080;SDS011;10200;49.232;9.222;2023-06-26T03:04:06;5.07;;;4.55;;
20080;SDS011;10200;49.232;9.222;2023-06-26T03:06:33;5.22;;;4.72;;
20080;SDS011;10200;49.232;9.222;2023-06-26T03:08:58;7.75;;;4.78;;
20080;SDS011;10200;49.232;9.222;2023-06-26T03:11:24;4.82;;;4.32;;
20080;SDS011;10200;49.232;9.222;2023-06-26T03:13:49;5.35;;;4.85;;
20080;SDS011;10200;49.232;9.222;2023-06-26T03:16:15;5.45;;;4.57;;
20080;SDS011;10200;49.232;9.222;2023-06-26T03:18:41;5.90;;;4.85;;
20080;SDS011;10200;49.232;9.222;2023-06-26T03:21:06;6.93;;;4.65;;
20080;SDS011;10200;49.232;9.222;2023-06-26T03:23:34;7.88;;;5.00;;
20080;SDS011;10200;49.232;9.222;2023-06-26T03:25:59;5.13;;;4.60;;
20080;SDS011;10200;49.232;9.222;2023-06-26T03:28:25;6.65;;;4.60;;
20080;SDS011;10200;49.232;9.222;2023-06-26T03:30:50;10.23;;;4.95;;
20080;SDS011;10200;49.232;9.222;2023-06-26T03:33:16;5.93;;;5.15;;
20080;SDS011;10200;49.232;9.222;2023-06-26T03:35:42;5.30;;;4.47;;
20080;SDS011;10200;49.232;9.222;2023-06-26T03:38:07;7.10;;;4.55;;
20080;SDS011;10200;49.232;9.222;2023-06-26T03:40:33;8.27;;;5.03;;
20080;SDS011;10200;49.232;9.222;2023-06-26T03:42:59;4.85;;;4.35;;
20080;SDS011;10200;49.232;9.222;2023-06-26T03:45:24;7.28;;;4.80;;
20080;SDS011;10200;49.232;9.222;2023-06-26T03:47:50;4.30;;;3.90;;
20080;SDS011;10200;49.232;9.222;2023-06-26T03:50:16;7.70;;;5.28;;
20080;SDS011;10200;49.232;9.222;2023-06-26T03:52:42;6.90;;;5.32;;
20080;SDS011;10200;49.232;9.222;2023-06-26T03:55:08;6.65;;;4.80;;
20080;SDS011;10200;49.232;9.222;2023-06-26T03:57:33;6.28;;;3.83;;
20080;SDS011;10200;49.232;9.222;2023-06-26T03:59:59;5.28;;;4.28;;
20080;SDS011;10200;49.232;9.222;2023-06-26T04:02:25;6.55;;;4.53;;
20080;SDS011;10200;49.232;9.222;2023-06-26T04:04:51;5.43;;;4.63;;
20080;SDS011;10200;49.232;9.222;2023-06-26T04:07:17;6.72;;;5.18;;
20080;SDS011;10200;49.232;9.222;2023-06-26T04:09:43;7.30;;;4.63;;
20080;SDS011;10200;49.232;9.222;2023-06-26T04:12:09;5.63;;;5.00;;
20080;SDS011;10200;49.232;9.222;2023-06-26T04:14:35;8.02;;;5.43;;
20080;SDS011;10200;49.232;9.222;2023-06-26T04:17:01;8.93;;;4.93;;
20080;SDS011;10200;49.232;9.222;2023-06-26T04:19:28;6.30;;;4.70;;
20080;SDS011;10200;49.232;9.222;2023-06-26T04:21:54;5.75;;;4.68;;
20080;SDS011;10200;49.232;9.222;2023-06-26T04:24:20;6.90;;;4.47;;
20080;SDS011;10200;49.232;9.222;2023-06-26T04:26:45;5.80;;;4.38;;
20080;SDS011;10200;49.232;9.222;2023-06-26T04:29:11;7.57;;;4.55;;
20080;SDS011;10200;49.232;9.222;2023-06-26T04:31:37;7.35;;;5.00;;
20080;SDS011;10200;49.232;9.222;2023-06-26T04:34:04;6.20;;;5.57;;
20080;SDS011;10200;49.232;9.222;2023-06-26T04:36:29;5.60;;;4.70;;
20080;SDS011;10200;49.232;9.222;2023-06-26T04:38:56;8.30;;;5.32;;
20080;SDS011;10200;49.232;9.222;2023-06-26T04:41:22;7.18;;;5.43;;
20080;SDS011;10200;49.232;9.222;2023-06-26T04:43:48;4.90;;;4.40;;
20080;SDS011;10200;49.232;9.222;2023-06-26T04:46:13;6.55;;;5.00;;
20080;SDS011;10200;49.232;9.222;2023-06-26T04:48:40;5.95;;;4.90;;
20080;SDS011;10200;49.232;9.222;2023-06-26T04:51:06;5.55;;;4.50;;
20080;SDS011;10200;49.232;9.222;2023-06-26T04:53:31;7.97;;;5.45;;
20080;SDS011;10200;49.232;9.222;2023-06-26T04:55:57;6.07;;;4.60;;
20080;SDS011;10200;49.232;9.222;2023-06-26T04:58:23;6.97;;;4.93;;
20080;SDS011;10200;49.232;9.222;2023-06-26T05:00:48;6.07;;;5.40;;
20080;SDS011;10200;49.232;9.222;2023-06-26T05:03:15;6.03;;;4.97;;
20080;SDS011;10200;49.232;9.222;2023-06-26T05:05:42;5.20;;;4.10;;
20080;SDS011;10200;49.232;9.222;2023-06-26T05:10:40;6.22;;;5.30;;
20080;SDS011;10200;49.232;9.222;2023-06-26T05:13:06;7.82;;;4.95;;
20080;SDS011;10200;49.232;9.222;2023-06-26T05:15:32;4.82;;;4.32;;
20080;SDS011;10200;49.232;9.222;2023-06-26T05:17:57;5.68;;;4.40;;
20080;SDS011;10200;49.232;9.222;2023-06-26T05:20:23;5.85;;;4.03;;
20080;SDS011;10200;49.232;9.222;2023-06-26T05:22:49;5.22;;;4.72;;
20080;SDS011;10200;49.232;9.222;2023-06-26T05:25:15;5.63;;;4.55;;
20080;SDS011;10200;49.232;9.222;2023-06-26T05:27:43;7.75;;;5.63;;
20080;SDS011;10200;49.232;9.222;2023-06-26T05:30:09;7.60;;;5.28;;
20080;SDS011;10200;49.232;9.222;2023-06-26T05:32:37;5.63;;;4.80;;
20080;SDS011;10200;49.232;9.222;2023-06-26T05:35:05;7.35;;;4.97;;
20080;SDS011;10200;49.232;9.222;2023-06-26T05:37:31;5.63;;;4.80;;
20080;SDS011;10200;49.232;9.222;2023-06-26T05:39:58;6.43;;;5.05;;
20080;SDS011;10200;49.232;9.222;2023-06-26T05:42:24;6.68;;;5.38;;
20080;SDS011;10200;49.232;9.222;2023-06-26T05:44:50;9.40;;;5.82;;
20080;SDS011;10200;49.232;9.222;2023-06-26T05:47:16;5.72;;;5.13;;
20080;SDS011;10200;49.232;9.222;2023-06-26T05:49:42;7.30;;;4.93;;
20080;SDS011;10200;49.232;9.222;2023-06-26T05:52:08;5.63;;;5.00;;
20080;SDS011;10200;49.232;9.222;2023-06-26T05:54:35;7.68;;;5.22;;
20080;SDS011;10200;49.232;9.222;2023-06-26T05:57:02;6.47;;;5.10;;
20080;SDS011;10200;49.232;9.222;2023-06-26T05:59:30;5.85;;;4.93;;
20080;SDS011;10200;49.232;9.222;2023-06-26T06:01:57;8.52;;;5.65;;
20080;SDS011;10200;49.232;9.222;2023-06-26T06:04:23;9.88;;;6.07;;
20080;SDS011;10200;49.232;9.222;2023-06-26T06:06:49;7.22;;;5.80;;
20080;SDS011;10200;49.232;9.222;2023-06-26T06:09:14;7.82;;;5.53;;
20080;SDS011;10200;49.232;9.222;2023-06-26T06:11:40;6.80;;;5.32;;
20080;SDS011;10200;49.232;9.222;2023-06-26T06:14:06;8.85;;;5.53;;
20080;SDS011;10200;49.232;9.222;2023-06-26T06:16:32;7.43;;;5.32;;
20080;SDS011;10200;49.232;9.222;2023-06-26T06:18:57;7.80;;;5.93;;
20080;SDS011;10200;49.232;9.222;2023-06-26T06:21:23;7.53;;;5.82;;
20080;SDS011;10200;49.232;9.222;2023-06-26T06:23:51;7.32;;;4.82;;
20080;SDS011;10200;49.232;9.222;2023-06-26T06:26:16;8.35;;;6.07;;
20080;SDS011;10200;49.232;9.222;2023-06-26T06:28:43;6.03;;;5.30;;
20080;SDS011;10200;49.232;9.222;2023-06-26T06:31:09;9.63;;;6.07;;
20080;SDS011;10200;49.232;9.222;2023-06-26T06:33:34;6.68;;;5.75;;
20080;SDS011;10200;49.232;9.222;2023-06-26T06:36:00;9.27;;;5.68;;
20080;SDS011;10200;49.232;9.222;2023-06-26T06:38:25;10.93;;;6.07;;
20080;SDS011;10200;49.232;9.222;2023-06-26T06:40:51;7.65;;;5.25;;
20080;SDS011;10200;49.232;9.222;2023-06-26T06:43:17;9.25;;;5.57;;
20080;SDS011;10200;49.232;9.222;2023-06-26T06:45:42;8.65;;;6.35;;
20080;SDS011;10200;49.232;9.222;2023-06-26T06:48:08;6.78;;;5.43;;
20080;SDS011;10200;49.232;9.222;2023-06-26T06:50:33;9.98;;;6.10;;
20080;SDS011;10200;49.232;9.222;2023-06-26T06:52:59;10.43;;;6.72;;
20080;SDS011;10200;49.232;9.222;2023-06-26T06:55:25;12.77;;;6.22;;
20080;SDS011;10200;49.232;9.222;2023-06-26T06:57:51;8.18;;;5.75;;
20080;SDS011;10200;49.232;9.222;2023-06-26T07:00:17;9.98;;;6.32;;
20080;SDS011;10200;49.232;9.222;2023-06-26T07:02:43;13.85;;;6.53;;
20080;SDS011;10200;49.232;9.222;2023-06-26T07:05:10;9.27;;;6.65;;
20080;SDS011;10200;49.232;9.222;2023-06-26T07:07:36;8.05;;;5.78;;
20080;SDS011;10200;49.232;9.222;2023-06-26T07:10:04;10.20;;;6.20;;
20080;SDS011;10200;49.232;9.222;2023-06-26T07:12:31;12.18;;;6.43;;
20080;SDS011;10200;49.232;9.222;2023-06-26T07:14:59;7.22;;;6.18;;
20080;SDS011;10200;49.232;9.222;2023-06-26T07:17:26;9.50;;;6.90;;
20080;SDS011;10200;49.232;9.222;2023-06-26T07:19:51;9.50;;;6.18;;
20080;SDS011;10200;49.232;9.222;2023-06-26T07:22:17;9.23;;;6.80;;
20080;SDS011;10200;49.232;9.222;2023-06-26T07:24:46;7.53;;;6.47;;
20080;SDS011;10200;49.232;9.222;2023-06-26T07:27:13;7.70;;;5.82;;
20080;SDS011;10200;49.232;9.222;2023-06-26T07:29:43;6.80;;;5.65;;
20080;SDS011;10200;49.232;9.222;2023-06-26T07:32:08;7.72;;;6.45;;
20080;SDS011;10200;49.232;9.222;2023-06-26T07:34:34;5.85;;;5.20;;
20080;SDS011;10200;49.232;9.222;2023-06-26T07:37:00;6.97;;;5.88;;
20080;SDS011;10200;49.232;9.222;2023-06-26T07:39:25;9.18;;;5.65;;
20080;SDS011;10200;49.232;9.222;2023-06-26T07:41:51;6.43;;;5.30;;
20080;SDS011;10200;49.232;9.222;2023-06-26T07:44:17;5.90;;;5.25;;
20080;SDS011;10200;49.232;9.222;2023-06-26T07:46:42;9.90;;;5.47;;
20080;SDS011;10200;49.232;9.222;2023-06-26T07:49:09;7.10;;;5.40;;
20080;SDS011;10200;49.232;9.222;2023-06-26T07:51:36;6.65;;;5.22;;
20080;SDS011;10200;49.232;9.222;2023-06-26T07:54:01;6.07;;;4.95;;
20080;SDS011;10200;49.232;9.222;2023-06-26T07:56:27;5.68;;;4.90;;
20080;SDS011;10200;49.232;9.222;2023-06-26T07:58:53;6.10;;;5.32;;
20080;SDS011;10200;49.232;9.222;2023-06-26T08:01:18;7.05;;;4.75;;
20080;SDS011;10200;49.232;9.222;2023-06-26T08:03:44;6.65;;;5.10;;
20080;SDS011;10200;49.232;9.222;2023-06-26T08:06:10;5.97;;;4.50;;
20080;SDS011;10200;49.232;9.222;2023-06-26T08:08:35;7.82;;;4.93;;
20080;SDS011;10200;49.232;9.222;2023-06-26T08:11:01;8.60;;;5.15;;
20080;SDS011;10200;49.232;9.222;2023-06-26T08:13:27;14.48;;;4.70;;
20080;SDS011;10200;49.232;9.222;2023-06-26T08:15:53;7.97;;;5.00;;
20080;SDS011;10200;49.232;9.222;2023-06-26T08:18:19;8.05;;;5.18;;
20080;SDS011;10200;49.232;9.222;2023-06-26T08:20:45;7.88;;;4.72;;
20080;SDS011;10200;49.232;9.222;2023-06-26T08:23:11;11.93;;;5.32;;
20080;SDS011;10200;49.232;9.222;2023-06-26T08:25:36;10.50;;;6.05;;
20080;SDS011;10200;49.232;9.222;2023-06-26T08:28:02;7.53;;;4.68;;
20080;SDS011;10200;49.232;9.222;2023-06-26T08:30:28;6.32;;;4.78;;
20080;SDS011;10200;49.232;9.222;2023-06-26T08:32:54;13.63;;;5.20;;
20080;SDS011;10200;49.232;9.222;2023-06-26T08:35:20;8.05;;;4.82;;
20080;SDS011;10200;49.232;9.222;2023-06-26T08:37:46;6.13;;;5.03;;
20080;SDS011;10200;49.232;9.222;2023-06-26T08:40:12;7.68;;;4.82;;
20080;SDS011;10200;49.232;9.222;2023-06-26T08:42:41;6.03;;;4.70;;
20080;SDS011;10200;49.232;9.222;2023-06-26T08:45:07;5.93;;;4.97;;
20080;SDS011;10200;49.232;9.222;2023-06-26T08:47:33;6.15;;;5.00;;
20080;SDS011;10200;49.232;9.222;2023-06-26T08:50:02;6.45;;;4.88;;
20080;SDS011;10200;49.232;9.222;2023-06-26T08:52:35;5.03;;;4.53;;
20080;SDS011;10200;49.232;9.222;2023-06-26T08:55:06;6.78;;;4.80;;
20080;SDS011;10200;49.232;9.222;2023-06-26T08:57:37;6.13;;;4.75;;
20080;SDS011;10200;49.232;9.222;2023-06-26T09:00:03;6.22;;;4.68;;
20080;SDS011;10200;49.232;9.222;2023-06-26T09:02:29;7.18;;;4.60;;
20080;SDS011;10200;49.232;9.222;2023-06-26T09:04:56;4.82;;;4.43;;
20080;SDS011;10200;49.232;9.222;2023-06-26T09:07:22;4.15;;;3.75;;
20080;SDS011;10200;49.232;9.222;2023-06-26T09:09:48;6.00;;;4.20;;
20080;SDS011;10200;49.232;9.222;2023-06-26T09:12:13;6.85;;;3.67;;
20080;SDS011;10200;49.232;9.222;2023-06-26T09:14:39;5.07;;;4.15;;
20080;SDS011;10200;49.232;9.222;2023-06-26T09:17:06;4.47;;;4.07;;
20080;SDS011;10200;49.232;9.222;2023-06-26T09:19:31;8.55;;;3.97;;
20080;SDS011;10200;49.232;9.222;2023-06-26T09:21:57;4.03;;;3.67;;
20080;SDS011;10200;49.232;9.222;2023-06-26T09:24:23;6.03;;;3.88;;
20080;SDS011;10200;49.232;9.222;2023-06-26T09:26:50;4.38;;;3.75;;
20080;SDS011;10200;49.232;9.222;2023-06-26T09:29:17;4.50;;;3.90;;
20080;SDS011;10200;49.232;9.222;2023-06-26T09:31:43;5.90;;;4.30;;
20080;SDS011;10200;49.232;9.222;2023-06-26T09:34:09;4.72;;;3.70;;
20080;SDS011;10200;49.232;9.222;2023-06-26T09:36:35;4.80;;;3.88;;
20080;SDS011;10200;49.232;9.222;2023-06-26T09:39:04;6.90;;;3.90;;
20080;SDS011;10200;49.232;9.222;2023-06-26T09:41:35;6.88;;;4.20;;
20080;SDS011;10200;49.232;9.222;2023-06-26T09:44:03;7.10;;;4.30;;
20080;SDS011;10200;49.232;9.222;2023-06-26T09:46:31;6.97;;;3.92;;
20080;SDS011;10200;49.232;9.222;2023-06-26T09:51:33;5.20;;;4.70;;
20080;SDS011;10200;49.232;9.222;2023-06-26T09:53:59;4.78;;;4.25;;
20080;SDS011;10200;49.232;9.222;2023-06-26T09:56:26;5.68;;;4.05;;
20080;SDS011;10200;49.232;9.222;2023-06-26T09:58:56;4.32;;;3.85;;
20080;SDS011;10200;49.232;9.222;2023-06-26T10:01:23;5.20;;;4.70;;
20080;SDS011;10200;49.232;9.222;2023-06-26T10:03:50;7.72;;;4.68;;
20080;SDS011;10200;49.232;9.222;2023-06-26T10:06:18;6.38;;;4.20;;
20080;SDS011;10200;49.232;9.222;2023-06-26T10:08:49;5.38;;;4.88;;
20080;SDS011;10200;49.232;9.222;2023-06-26T10:11:16;5.82;;;4.22;;
20080;SDS011;10200;49.232;9.222;2023-06-26T10:13:47;7.93;;;4.65;;
20080;SDS011;10200;49.232;9.222;2023-06-26T10:16:17;5.25;;;4.05;;
20080;SDS011;10200;49.232;9.222;2023-06-26T10:18:53;5.50;;;4.18;;
20080;SDS011;10200;49.232;9.222;2023-06-26T10:21:24;4.68;;;4.28;;
20080;SDS011;10200;49.232;9.222;2023-06-26T10:23:51;6.80;;;4.88;;
20080;SDS011;10200;49.232;9.222;2023-06-26T10:26:19;6.43;;;4.38;;
20080;SDS011;10200;49.232;9.222;2023-06-26T10:28:46;9.68;;;4.97;;
20080;SDS011;10200;49.232;9.222;2023-06-26T10:31:17;6.13;;;4.88;;
20080;SDS011;10200;49.232;9.222;2023-06-26T10:33:46;4.63;;;4.13;;
20080;SDS011;10200;49.232;9.222;2023-06-26T10:38:52;5.85;;;4.55;;
20080;SDS011;10200;49.232;9.222;2023-06-26T10:41:21;7.22;;;4.43;;
20080;SDS011;10200;49.232;9.222;2023-06-26T10:43:50;5.57;;;4.80;;
20080;SDS011;10200;49.232;9.222;2023-06-26T10:46:33;6.93;;;5.03;;
20080;SDS011;10200;49.232;9.222;2023-06-26T10:49:15;7.20;;;4.95;;
20080;SDS011;10200;49.232;9.222;2023-06-26T10:51:48;5.30;;;4.80;;
20080;SDS011;10200;49.232;9.222;2023-06-26T10:54:16;5.55;;;4.97;;
20080;SDS011;10200;49.232;9.222;2023-06-26T10:57:01;9.75;;;5.38;;
20080;SDS011;10200;49.232;9.222;2023-06-26T10:59:28;5.50;;;4.70;;
20080;SDS011;10200;49.232;9.222;2023-06-26T11:02:01;7.00;;;4.82;;
20080;SDS011;10200;49.232;9.222;2023-06-26T11:04:45;5.43;;;4.93;;
20080;SDS011;10200;49.232;9.222;2023-06-26T11:12:42;8.30;;;4.78;;
20080;SDS011;10200;49.232;9.222;2023-06-26T11:15:15;5.65;;;5.00;;
20080;SDS011;10200;49.232;9.222;2023-06-26T11:17:43;5.38;;;4.88;;
20080;SDS011;10200;49.232;9.222;2023-06-26T11:20:10;5.75;;;5.15;;
20080;SDS011;10200;49.232;9.222;2023-06-26T11:22:38;7.35;;;5.47;;
20080;SDS011;10200;49.232;9.222;2023-06-26T11:25:08;5.93;;;4.75;;
20080;SDS011;10200;49.232;9.222;2023-06-26T11:30:10;6.55;;;5.05;;
20080;SDS011;10200;49.232;9.222;2023-06-26T11:32:47;5.70;;;4.97;;
20080;SDS011;10200;49.232;9.222;2023-06-26T11:35:13;5.45;;;4.90;;
20080;SDS011;10200;49.232;9.222;2023-06-26T11:37:38;5.75;;;5.00;;
20080;SDS011;10200;49.232;9.222;2023-06-26T11:40:20;7.43;;;5.22;;
20080;SDS011;10200;49.232;9.222;2023-06-26T11:42:46;5.35;;;4.85;;
20080;SDS011;10200;49.232;9.222;2023-06-26T11:45:12;6.88;;;5.00;;
20080;SDS011;10200;49.232;9.222;2023-06-26T11:47:38;5.40;;;4.90;;
20080;SDS011;10200;49.232;9.222;2023-06-26T11:50:04;5.35;;;4.75;;
20080;SDS011;10200;49.232;9.222;2023-06-26T11:52:32;5.43;;;4.65;;
20080;SDS011;10200;49.232;9.222;2023-06-26T11:54:58;5.80;;;4.95;;
20080;SDS011;10200;49.232;9.222;2023-06-26T11:57:23;6.88;;;4.85;;
20080;SDS011;10200;49.232;9.222;2023-06-26T11:59:50;4.40;;;4.00;;
20080;SDS011;10200;49.232;9.222;2023-06-26T12:02:16;5.38;;;4.88;;
20080;SDS011;10200;49.232;9.222;2023-06-26T12:04:43;4.85;;;4.35;;
20080;SDS011;10200;49.232;9.222;2023-06-26T12:07:09;5.55;;;4.90;;
20080;SDS011;10200;49.232;9.222;2023-06-26T12:09:42;8.25;;;5.07;;
20080;SDS011;10200;49.232;9.222;2023-06-26T12:12:10;7.72;;;4.65;;
20080;SDS011;10200;49.232;9.222;2023-06-26T12:14:39;7.68;;;4.40;;
20080;SDS011;10200;49.232;9.222;2023-06-26T12:17:12;6.10;;;5.22;;
20080;SDS011;10200;49.232;9.222;2023-06-26T12:19:39;5.15;;;4.65;;
20080;SDS011;10200;49.232;9.222;2023-06-26T12:22:08;5.75;;;5.00;;
20080;SDS011;10200;49.232;9.222;2023-06-26T12:24:38;9.13;;;5.00;;
20080;SDS011;10200;49.232;9.222;2023-06-26T12:27:11;6.60;;;4.68;;
20080;SDS011;10200;49.232;9.222;2023-06-26T12:29:39;7.28;;;4.25;;
20080;SDS011;10200;49.232;9.222;2023-06-26T12:32:10;7.65;;;4.78;;
20080;SDS011;10200;49.232;9.222;2023-06-26T12:34:37;8.27;;;4.75;;
20080;SDS011;10200;49.232;9.222;2023-06-26T12:37:10;6.63;;;4.65;;
20080;SDS011;10200;49.232;9.222;2023-06-26T12:42:15;7.28;;;5.05;;
20080;SDS011;10200;49.232;9.222;2023-06-26T12:44:42;4.70;;;4.20;;
20080;SDS011;10200;49.232;9.222;2023-06-26T12:47:08;8.23;;;4.32;;
20080;SDS011;10200;49.232;9.222;2023-06-26T12:52:02;8.38;;;4.60;;
20080;SDS011;10200;49.232;9.222;2023-06-26T12:54:36;7.43;;;5.35;;
20080;SDS011;10200;49.232;9.222;2023-06-26T12:57:03;9.85;;;5.18;;
20080;SDS011;10200;49.232;9.222;2023-06-26T12:59:30;8.15;;;4.85;;
20080;SDS011;10200;49.232;9.222;2023-06-26T13:01:57;8.43;;;5.22;;
20080;SDS011;10200;49.232;9.222;2023-06-26T13:04:22;8.80;;;4.75;;
20080;SDS011;10200;49.232;9.222;2023-06-26T13:06:48;5.65;;;4.85;;
20080;SDS011;10200;49.232;9.222;2023-06-26T13:09:14;6.05;;;4.93;;
20080;SDS011;10200;49.232;9.222;2023-06-26T13:11:41;5.90;;;5.07;;
20080;SDS011;10200;49.232;9.222;2023-06-26T13:14:06;7.65;;;4.60;;
20080;SDS011;10200;49.232;9.222;2023-06-26T13:16:32;6.53;;;4.75;;
20080;SDS011;10200;49.232;9.222;2023-06-26T13:18:58;5.13;;;4.63;;
20080;SDS011;10200;49.232;9.222;2023-06-26T13:21:25;8.15;;;4.68;;
20080;SDS011;10200;49.232;9.222;2023-06-26T13:23:50;7.32;;;4.65;;
20080;SDS011;10200;49.232;9.222;2023-06-26T13:26:16;7.05;;;4.03;;
20080;SDS011;10200;49.232;9.222;2023-06-26T13:28:41;4.72;;;3.78;;
20080;SDS011;10200;49.232;9.222;2023-06-26T13:31:07;4.53;;;4.07;;
20080;SDS011;10200;49.232;9.222;2023-06-26T13:33:33;5.20;;;3.70;;
20080;SDS011;10200;49.232;9.222;2023-06-26T13:35:58;5.47;;;3.70;;
20080;SDS011;10200;49.232;9.222;2023-06-26T13:38:24;3.92;;;3.38;;
20080;SDS011;10200;49.232;9.222;2023-06-26T13:40:53;4.30;;;3.88;;
20080;SDS011;10200;49.232;9.222;2023-06-26T13:43:22;6.63;;;3.70;;
20080;SDS011;10200;49.232;9.222;2023-06-26T13:45:48;6.15;;;4.43;;
20080;SDS011;10200;49.232;9.222;2023-06-26T13:48:14;5.22;;;3.70;;
20080;SDS011;10200;49.232;9.222;2023-06-26T13:50:40;4.93;;;3.42;;
20080;SDS011;10200;49.232;9.222;2023-06-26T13:53:05;3.58;;;3.13;;
20080;SDS011;10200;49.232;9.222;2023-06-26T13:55:32;7.35;;;3.83;;
20080;SDS011;10200;49.232;9.222;2023-06-26T13:57:59;4.72;;;3.30;;
20080;SDS011;10200;49.232;9.222;2023-06-26T14:00:24;3.22;;;2.72;;
20080;SDS011;10200;49.232;9.222;2023-06-26T14:02:50;3.35;;;3.05;;
20080;SDS011;10200;49.232;9.222;2023-06-26T14:05:16;5.68;;;2.67;;
20080;SDS011;10200;49.232;9.222;2023-06-26T14:07:43;3.72;;;3.13;;
20080;SDS011;10200;49.232;9.222;2023-06-26T14:10:09;6.78;;;3.40;;
20080;SDS011;10200;49.232;9.222;2023-06-26T14:12:35;3.70;;;2.67;;
20080;SDS011;10200;49.232;9.222;2023-06-26T14:15:01;2.92;;;2.70;;
20080;SDS011;10200;49.232;9.222;2023-06-26T14:17:28;6.40;;;3.22;;
20080;SDS011;10200;49.232;9.222;2023-06-26T14:19:54;3.88;;;2.70;;
20080;SDS011;10200;49.232;9.222;2023-06-26T14:22:20;7.82;;;3.17;;
20080;SDS011;10200;49.232;9.222;2023-06-26T14:24:46;6.15;;;3.08;;
20080;SDS011;10200;49.232;9.222;2023-06-26T14:27:11;6.88;;;3.67;;
20080;SDS011;10200;49.232;9.222;2023-06-26T14:29:37;4.13;;;2.88;;
20080;SDS011;10200;49.232;9.222;2023-06-26T14:32:03;3.80;;;2.90;;
20080;SDS011;10200;49.232;9.222;2023-06-26T14:34:29;4.93;;;2.80;;
20080;SDS011;10200;49.232;9.222;2023-06-26T14:36:55;2.90;;;2.60;;
20080;SDS011;10200;49.232;9.222;2023-06-26T14:39:20;3.38;;;2.78;;
20080;SDS011;10200;49.232;9.222;2023-06-26T14:41:46;3.95;;;3.00;;
20080;SDS011;10200;49.232;9.222;2023-06-26T14:44:13;7.65;;;2.85;;
20080;SDS011;10200;49.232;9.222;2023-06-26T14:46:39;4.28;;;3.00;;
20080;SDS011;10200;49.232;9.222;2023-06-26T14:49:04;8.50;;;2.88;;
20080;SDS011;10200;49.232;9.222;2023-06-26T14:51:30;3.55;;;2.92;;
20080;SDS011;10200;49.232;9.222;2023-06-26T14:53:56;6.82;;;3.50;;
20080;SDS011;10200;49.232;9.222;2023-06-26T14:56:21;5.30;;;3.92;;
20080;SDS011;10200;49.232;9.222;2023-06-26T14:58:47;5.55;;;4.45;;
20080;SDS011;10200;49.232;9.222;2023-06-26T15:01:13;4.13;;;3.70;;
20080;SDS011;10200;49.232;9.222;2023-06-26T15:03:41;3.72;;;3.42;;
20080;SDS011;10200;49.232;9.222;2023-06-26T15:06:07;6.38;;;4.40;;
20080;SDS011;10200;49.232;9.222;2023-06-26T15:08:33;4.97;;;4.15;;
20080;SDS011;10200;49.232;9.222;2023-06-26T15:11:00;9.63;;;5.18;;